Time;durP1;ratioP1;P1;durP2;ratioP2;P2;SDS_P1;SDS_P2;PMS_P1;PMS_P2;Temp;Humidity;BMP_temperature;BMP_pressure;BME280_temperature;BME280_humidity;BME280_pressure;Samples;Min_cycle;Max_cycle;Signal;HPM_P1;HPM_P2
2022/09/06 04:01:48;;;;;;;7.73;5.37;;;18.00;99.90;;;;;;5374879;23;20499;-72
2022/09/06 04:04:15;;;;;;;5.70;4.90;;;18.00;99.90;;;;;;4987909;28;20462;-73
2022/09/06 04:06:42;;;;;;;6.10;5.50;;;18.00;99.90;;;;;;4988673;28;20469;-73
2022/09/06 04:09:09;;;;;;;11.40;6.17;;;18.10;99.90;;;;;;4988564;28;20467;-73
2022/09/06 04:11:36;;;;;;;11.70;6.10;;;17.90;99.90;;;;;;4988456;28;20479;-73
2022/09/06 04:14:02;;;;;;;7.83;5.43;;;17.80;99.90;;;;;;4987973;28;20518;-73
2022/09/06 04:16:29;;;;;;;13.40;5.50;;;17.90;99.90;;;;;;4988024;28;20460;-74
2022/09/06 04:18:59;;;;;;;5.50;5.00;;;18.00;99.90;;;;;;4986602;28;20466;-74
2022/09/06 04:21:27;;;;;;;6.30;5.70;;;18.00;99.90;;;;;;4988401;28;20546;-74
2022/09/06 04:23:54;;;;;;;7.50;5.37;;;18.00;99.90;;;;;;4988358;28;20464;-74
2022/09/06 04:26:20;;;;;;;10.93;6.30;;;18.00;99.90;;;;;;4987878;28;21127;-74
2022/09/06 04:28:47;;;;;;;10.90;5.30;;;18.10;99.90;;;;;;4987292;28;21122;-74
2022/09/06 04:31:14;;;;;;;9.20;6.23;;;18.10;99.90;;;;;;4987999;28;20991;-74
2022/09/06 04:33:41;;;;;;;7.27;6.53;;;18.10;99.90;;;;;;4988466;28;20972;-72
2022/09/06 04:36:11;;;;;;;6.00;5.40;;;18.10;99.90;;;;;;4987944;28;20455;-71
2022/09/06 04:38:39;;;;;;;9.50;5.93;;;18.10;99.90;;;;;;4988569;28;20463;-72
2022/09/06 04:41:07;;;;;;;8.67;6.57;;;18.10;99.90;;;;;;4988486;28;20487;-72
2022/09/06 04:43:34;;;;;;;6.73;5.57;;;18.00;99.90;;;;;;4988379;28;20467;-71
2022/09/06 04:46:04;;;;;;;10.00;6.67;;;18.10;99.90;;;;;;4987432;28;20488;-72
2022/09/06 04:48:31;;;;;;;19.20;7.13;;;18.10;99.90;;;;;;4987854;28;20484;-72
2022/09/06 04:50:58;;;;;;;11.73;7.47;;;18.10;99.90;;;;;;4988102;28;20480;-72
2022/09/06 04:53:26;;;;;;;10.20;6.50;;;18.10;99.90;;;;;;4988360;28;20467;-72
2022/09/06 04:55:53;;;;;;;7.00;5.60;;;18.10;99.90;;;;;;4987232;28;20455;-72
2022/09/06 04:58:20;;;;;;;10.40;6.53;;;18.10;99.90;;;;;;4987679;28;20585;-72
2022/09/06 05:00:47;;;;;;;8.33;6.20;;;18.10;99.90;;;;;;4987720;28;20594;-72
2022/09/06 05:03:13;;;;;;;7.20;6.43;;;18.10;99.90;;;;;;4987673;28;20459;-72
2022/09/06 05:05:40;;;;;;;7.00;5.87;;;18.10;99.90;;;;;;4985617;28;20963;-72
2022/09/06 05:08:07;;;;;;;9.13;6.77;;;18.00;99.90;;;;;;4986273;28;20848;-72
2022/09/06 05:10:35;;;;;;;8.63;7.53;;;18.10;99.90;;;;;;4987485;28;20487;-71
2022/09/06 05:13:02;;;;;;;10.67;6.73;;;18.00;99.90;;;;;;4987401;28;20944;-73
2022/09/06 05:15:29;;;;;;;6.67;5.97;;;18.00;99.90;;;;;;4986794;28;20469;-72
2022/09/06 05:18:02;;;;;;;9.00;6.40;;;18.10;99.90;;;;;;4987894;28;20878;-72
2022/09/06 05:20:29;;;;;;;6.30;5.70;;;18.10;99.90;;;;;;4987791;28;20518;-72
2022/09/06 05:22:56;;;;;;;8.47;6.13;;;18.10;99.90;;;;;;4987705;28;20460;-72
2022/09/06 05:25:23;;;;;;;7.10;6.03;;;18.10;99.90;;;;;;4986459;28;20480;-68
2022/09/06 05:27:51;;;;;;;7.43;6.70;;;18.20;99.90;;;;;;4986885;28;20502;-67
2022/09/06 05:30:18;;;;;;;11.77;6.67;;;18.10;99.90;;;;;;4985721;28;20459;-67
2022/09/06 05:32:45;;;;;;;17.77;7.30;;;18.10;99.90;;;;;;4987311;28;20474;-67
2022/09/06 05:35:12;;;;;;;7.00;6.13;;;18.20;99.90;;;;;;4986529;28;20459;-68
2022/09/06 05:37:39;;;;;;;9.63;6.60;;;18.10;99.90;;;;;;4987462;28;20458;-73
2022/09/06 05:40:06;;;;;;;8.97;7.30;;;18.10;99.90;;;;;;4987568;28;20486;-73
2022/09/06 05:42:33;;;;;;;16.33;8.00;;;18.10;99.90;;;;;;4986791;28;20511;-73
2022/09/06 05:45:01;;;;;;;10.20;6.97;;;18.10;99.90;;;;;;4985958;28;21011;-74
2022/09/06 05:47:29;;;;;;;7.10;6.37;;;18.20;99.90;;;;;;4986902;28;20495;-73
2022/09/06 05:49:57;;;;;;;11.87;7.87;;;18.20;99.90;;;;;;4987169;28;20565;-73
2022/09/06 05:52:24;;;;;;;9.00;8.20;;;18.20;99.90;;;;;;4986901;28;20484;-73
2022/09/06 05:54:50;;;;;;;7.90;7.10;;;18.20;99.90;;;;;;4986014;28;20464;-73
2022/09/06 05:57:17;;;;;;;11.00;7.60;;;18.30;99.90;;;;;;4986515;28;21318;-74
2022/09/06 05:59:44;;;;;;;9.03;7.20;;;18.30;99.90;;;;;;4987069;28;20459;-74
2022/09/06 06:02:12;;;;;;;9.23;7.87;;;18.30;99.90;;;;;;4986435;28;20488;-73
2022/09/06 06:04:39;;;;;;;8.17;7.10;;;18.30;99.90;;;;;;4985711;28;20459;-73
2022/09/06 06:07:06;;;;;;;8.07;6.80;;;18.30;99.90;;;;;;4986837;28;20463;-73
2022/09/06 06:09:32;;;;;;;9.80;7.80;;;18.40;99.90;;;;;;4986726;28;20566;-73
2022/09/06 06:11:59;;;;;;;9.40;7.43;;;18.40;99.90;;;;;;4986147;28;20479;-73
2022/09/06 06:14:26;;;;;;;9.43;8.10;;;18.40;99.90;;;;;;4986094;28;20466;-73
2022/09/06 06:16:53;;;;;;;8.30;7.50;;;18.40;99.90;;;;;;4986081;28;20482;-74
2022/09/06 06:19:21;;;;;;;8.00;6.93;;;18.40;99.90;;;;;;4986520;28;20451;-73
2022/09/06 06:21:48;;;;;;;10.00;7.17;;;18.40;99.90;;;;;;4986468;28;20480;-74
2022/09/06 06:24:15;;;;;;;8.03;6.63;;;18.40;99.90;;;;;;4985625;28;20534;-73
2022/09/06 06:26:41;;;;;;;9.13;8.23;;;18.40;99.90;;;;;;4986035;28;20467;-72
2022/09/06 06:29:08;;;;;;;10.40;7.33;;;18.40;99.90;;;;;;4984362;28;20498;-72
2022/09/06 06:31:37;;;;;;;10.53;8.20;;;18.50;99.90;;;;;;4986241;28;20492;-73
2022/09/06 06:34:04;;;;;;;11.50;8.63;;;18.50;99.90;;;;;;4984707;28;20455;-73
2022/09/06 06:36:33;;;;;;;11.17;8.63;;;18.60;99.90;;;;;;4986008;28;20463;-72
2022/09/06 06:39:01;;;;;;;9.53;8.50;;;18.70;99.90;;;;;;4985696;28;21252;-72
2022/09/06 06:41:30;;;;;;;10.10;8.30;;;18.70;99.90;;;;;;4986461;28;20530;-73
2022/09/06 06:44:03;;;;;;;10.50;8.00;;;18.70;99.90;;;;;;4985839;28;20467;-73
2022/09/06 06:46:32;;;;;;;7.60;6.80;;;18.70;99.90;;;;;;4985168;28;20947;-72
2022/09/06 06:48:59;;;;;;;9.00;7.33;;;18.70;99.90;;;;;;4985588;28;20862;-75
2022/09/06 06:51:30;;;;;;;9.93;7.13;;;18.70;99.90;;;;;;4985923;28;20946;-74
2022/09/06 06:53:59;;;;;;;12.50;6.33;;;18.80;99.90;;;;;;4985645;28;20451;-73
2022/09/06 06:56:28;;;;;;;8.80;5.97;;;18.80;99.90;;;;;;4986103;28;20467;-73
2022/09/06 06:58:57;;;;;;;11.33;6.50;;;18.70;99.90;;;;;;4986085;28;20471;-74
2022/09/06 07:01:25;;;;;;;7.73;6.23;;;18.80;99.90;;;;;;4985970;28;21031;-73
2022/09/06 07:03:53;;;;;;;10.30;6.63;;;18.80;99.90;;;;;;4985861;28;20526;-73
2022/09/06 07:06:20;;;;;;;12.00;6.47;;;18.90;99.90;;;;;;4985527;28;20467;-73
2022/09/06 07:08:47;;;;;;;11.43;7.40;;;18.80;99.90;;;;;;4985860;28;20495;-73
2022/09/06 07:11:17;;;;;;;7.23;6.50;;;18.90;99.90;;;;;;4985904;28;20509;-75
2022/09/06 07:13:44;;;;;;;13.23;6.50;;;18.90;99.90;;;;;;4985745;28;20460;-73
2022/09/06 07:16:13;;;;;;;8.37;6.90;;;18.90;99.90;;;;;;4985322;28;20455;-73
2022/09/06 07:18:44;;;;;;;8.03;7.23;;;19.00;99.90;;;;;;4985790;28;20459;-73
2022/09/06 07:21:12;;;;;;;13.00;7.10;;;19.10;99.90;;;;;;4985976;28;20490;-74
2022/09/06 07:23:39;;;;;;;14.90;6.83;;;19.20;99.90;;;;;;4986301;28;20839;-73
2022/09/06 07:26:07;;;;;;;13.27;7.90;;;19.20;99.90;;;;;;4985286;28;20470;-73
2022/09/06 07:28:35;;;;;;;37.63;10.90;;;19.30;99.90;;;;;;4985545;28;20500;-74
2022/09/06 07:31:02;;;;;;;11.00;7.67;;;19.30;99.90;;;;;;4985709;28;20479;-74
2022/09/06 07:33:29;;;;;;;9.17;6.40;;;19.40;99.90;;;;;;4985954;28;20537;-75
2022/09/06 07:35:58;;;;;;;14.50;7.47;;;19.50;99.90;;;;;;4984038;28;20505;-74
2022/09/06 07:38:25;;;;;;;21.30;9.00;;;19.60;99.90;;;;;;4985718;28;20832;-74
2022/09/06 07:41:00;;;;;;;19.07;7.97;;;19.60;99.90;;;;;;4985457;28;20775;-74
2022/09/06 07:43:27;;;;;;;23.97;9.90;;;19.70;99.90;;;;;;4985548;28;20951;-74
2022/09/06 07:46:01;;;;;;;17.57;8.30;;;19.80;99.90;;;;;;4984610;28;20655;-74
2022/09/06 07:48:29;;;;;;;9.23;7.00;;;19.90;99.90;;;;;;4985379;28;20502;-74
2022/09/06 07:51:02;;;;;;;17.73;8.17;;;20.00;99.90;;;;;;4986198;28;20479;-74
2022/09/06 07:53:30;;;;;;;6.47;5.60;;;20.00;99.90;;;;;;4987205;28;20464;-76
2022/09/06 07:55:57;;;;;;;9.80;6.00;;;20.10;99.90;;;;;;4988908;28;20462;-75
2022/09/06 07:58:24;;;;;;;16.87;6.63;;;20.20;99.90;;;;;;4989143;28;20562;-75
2022/09/06 08:00:51;;;;;;;6.90;5.83;;;20.30;99.90;;;;;;4988825;28;20491;-74
2022/09/06 08:03:19;;;;;;;6.40;5.37;;;20.40;99.90;;;;;;4988719;28;20455;-74
2022/09/06 08:05:49;;;;;;;8.97;5.53;;;20.40;99.90;;;;;;4988099;28;20498;-75
2022/09/06 08:08:16;;;;;;;5.73;5.10;;;20.50;99.90;;;;;;4988125;28;20580;-75
2022/09/06 08:10:43;;;;;;;12.43;6.30;;;20.60;99.90;;;;;;4988340;28;20487;-76
2022/09/06 08:13:09;;;;;;;8.77;6.50;;;20.60;99.90;;;;;;4988698;28;20467;-75
2022/09/06 08:15:36;;;;;;;9.30;6.30;;;20.70;99.90;;;;;;4988150;28;20485;-75
2022/09/06 08:18:03;;;;;;;6.30;5.60;;;20.80;99.90;;;;;;4988771;28;20455;-75
2022/09/06 08:20:31;;;;;;;9.13;4.80;;;20.80;99.90;;;;;;4988191;28;20455;-74
2022/09/06 08:22:58;;;;;;;11.00;6.30;;;20.80;99.90;;;;;;4987925;28;20459;-75
2022/09/06 08:25:25;;;;;;;12.23;6.30;;;20.90;99.90;;;;;;4987337;28;21134;-76
2022/09/06 08:27:52;;;;;;;5.90;5.27;;;21.10;99.90;;;;;;4988294;28;20495;-75
2022/09/06 08:30:19;;;;;;;7.93;5.30;;;21.20;99.90;;;;;;4988258;28;20548;-75
2022/09/06 08:32:46;;;;;;;6.10;4.73;;;21.40;99.90;;;;;;4988136;28;20463;-74
2022/09/06 08:35:13;;;;;;;7.70;4.90;;;21.60;99.90;;;;;;4987523;28;20468;-77
2022/09/06 08:37:41;;;;;;;4.83;4.43;;;21.80;99.90;;;;;;4987963;28;20491;-75
2022/09/06 08:40:09;;;;;;;12.23;5.43;;;22.10;99.90;;;;;;4987901;28;20940;-75
2022/09/06 08:42:39;;;;;;;9.40;5.37;;;22.20;99.90;;;;;;4987520;28;20851;-76
2022/09/06 08:45:11;;;;;;;4.80;4.30;;;22.20;99.90;;;;;;4987427;28;20947;-75
2022/09/06 08:47:38;;;;;;;8.67;4.90;;;22.50;99.90;;;;;;4987765;28;20875;-74
2022/09/06 08:50:07;;;;;;;7.27;4.20;;;22.70;99.90;;;;;;4987753;28;20857;-75
2022/09/06 08:52:48;;;;;;;11.40;5.83;;;22.80;99.90;;;;;;4987676;28;20807;-75
2022/09/06 08:55:28;;;;;;;5.17;4.00;;;23.00;99.90;;;;;;4987482;28;20444;-75
2022/09/06 08:58:05;;;;;;;14.17;6.07;;;23.40;99.90;;;;;;4987984;28;20613;-75
2022/09/06 09:00:33;;;;;;;4.33;3.90;;;23.70;99.90;;;;;;4987141;28;21005;-75
2022/09/06 09:03:08;;;;;;;8.47;4.20;;;23.70;99.90;;;;;;4987458;28;20636;-75
2022/09/06 09:05:37;;;;;;;6.53;4.50;;;23.80;99.90;;;;;;4987254;28;20836;-75
2022/09/06 09:08:19;;;;;;;4.27;3.87;;;23.90;99.90;;;;;;4987801;28;20451;-75
2022/09/06 09:10:48;;;;;;;4.50;4.10;;;24.50;99.90;;;;;;4987592;28;20487;-74
2022/09/06 09:13:24;;;;;;;8.50;4.60;;;24.60;99.90;;;;;;4986965;28;20475;-75
2022/09/06 09:15:51;;;;;;;6.47;3.53;;;24.50;99.90;;;;;;4987009;28;20474;-75
2022/09/06 09:18:23;;;;;;;6.23;4.30;;;24.60;99.90;;;;;;4987659;28;20460;-75
2022/09/06 09:20:50;;;;;;;4.87;3.37;;;24.60;99.90;;;;;;4987437;28;20499;-75
2022/09/06 09:23:18;;;;;;;7.47;5.50;;;24.80;99.90;;;;;;4986979;28;20460;-75
2022/09/06 09:25:52;;;;;;;5.17;4.37;;;24.90;99.90;;;;;;4986289;28;20841;-75
2022/09/06 09:28:22;;;;;;;8.37;4.00;;;25.30;99.90;;;;;;4987297;28;20455;-74
2022/09/06 09:30:52;;;;;;;5.97;3.73;;;25.50;99.90;;;;;;4987032;28;20483;-74
2022/09/06 09:33:25;;;;;;;8.40;3.80;;;26.00;99.90;;;;;;4987038;28;20474;-76
2022/09/06 09:35:52;;;;;;;4.83;3.00;;;26.80;99.90;;;;;;4986248;28;20462;-75
2022/09/06 09:38:24;;;;;;;5.33;3.20;;;27.20;99.90;;;;;;4986711;28;20463;-74
2022/09/06 09:40:52;;;;;;;6.80;3.67;;;27.40;99.90;;;;;;4987155;28;20752;-74
2022/09/06 09:43:22;;;;;;;5.47;3.60;;;27.40;99.90;;;;;;4986987;28;20466;-75
2022/09/06 09:46:13;;;;;;;7.70;3.87;;;27.20;99.90;;;;;;4986297;28;20455;-76
2022/09/06 09:48:43;;;;;;;10.50;3.90;;;27.00;99.90;;;;;;4986939;28;20864;-74
2022/09/06 09:51:19;;;;;;;9.67;3.87;;;26.80;99.90;;;;;;4987009;28;20479;-74
2022/09/06 09:53:55;;;;;;;6.77;3.80;;;26.70;99.90;;;;;;4986688;28;20448;-75
2022/09/06 09:56:29;;;;;;;6.37;3.37;;;26.70;99.90;;;;;;4986570;28;20471;-74
2022/09/06 09:58:58;;;;;;;4.30;3.30;;;26.70;99.90;;;;;;4986138;28;20626;-74
2022/09/06 10:01:28;;;;;;;6.63;3.20;;;26.60;99.90;;;;;;4986378;28;21326;-74
2022/09/06 10:04:06;;;;;;;7.80;3.97;;;26.50;99.90;;;;;;4986267;28;20463;-75
2022/09/06 10:06:33;;;;;;;5.67;3.80;;;26.50;99.90;;;;;;4986480;28;20466;-76
2022/09/06 10:09:14;;;;;;;5.70;3.27;;;26.70;99.90;;;;;;4986277;28;20491;-74
2022/09/06 10:11:51;;;;;;;8.43;4.00;;;26.70;99.90;;;;;;4986263;28;20487;-74
2022/09/06 10:14:29;;;;;;;9.30;4.13;;;26.70;99.90;;;;;;4985430;28;20470;-75
2022/09/06 10:16:57;;;;;;;7.50;4.30;;;26.60;99.90;;;;;;4986679;28;20451;-76
2022/09/06 10:19:40;;;;;;;6.57;3.70;;;26.70;99.90;;;;;;4986202;28;20481;-75
2022/09/06 10:22:27;;;;;;;8.27;3.17;;;26.80;99.90;;;;;;4986016;28;20479;-74
2022/09/06 10:25:25;;;;;;;4.70;3.43;;;27.10;99.90;;;;;;4985929;28;20459;-75
2022/09/06 10:28:24;;;;;;;9.27;4.00;;;27.50;99.90;;;;;;4985963;28;20452;-76
2022/09/06 10:31:09;;;;;;;3.90;3.30;;;27.80;99.90;;;;;;4982453;28;20514;-76
2022/09/06 10:33:47;;;;;;;7.07;3.67;;;27.90;99.90;;;;;;4986435;28;20447;-76
2022/09/06 10:36:19;;;;;;;8.17;3.30;;;27.90;99.90;;;;;;4985550;28;20850;-76
2022/09/06 10:38:53;;;;;;;5.87;3.33;;;27.80;99.90;;;;;;4985808;28;20459;-76
2022/09/06 10:41:34;;;;;;;5.83;3.53;;;27.90;99.90;;;;;;4986238;28;21369;-76
2022/09/06 10:44:11;;;;;;;7.40;3.20;;;28.00;99.90;;;;;;4985533;28;20460;-75
2022/09/06 10:46:40;;;;;;;11.50;3.50;;;28.00;99.90;;;;;;4986136;28;20622;-76
2022/09/06 10:49:11;;;;;;;6.53;3.60;;;28.00;99.90;;;;;;4985392;28;20603;-73
2022/09/06 10:51:42;;;;;;;5.93;3.53;;;28.30;99.90;;;;;;4985487;28;20479;-73
2022/09/06 10:54:11;;;;;;;6.57;3.27;;;28.30;99.90;;;;;;4985557;28;20468;-73
2022/09/06 10:56:43;;;;;;;8.23;3.30;;;28.30;99.90;;;;;;4986050;28;20459;-76
2022/09/06 10:59:18;;;;;;;7.30;3.60;;;28.30;99.90;;;;;;4985917;28;20452;-75
2022/09/06 11:02:08;;;;;;;7.97;3.93;;;28.30;99.90;;;;;;4985489;28;20497;-76
2022/09/06 11:04:37;;;;;;;9.70;3.70;;;28.30;99.90;;;;;;4985180;28;20928;-76
2022/09/06 11:07:10;;;;;;;5.07;3.37;;;28.30;99.90;;;;;;4985871;28;20452;-76
2022/09/06 11:09:44;;;;;;;9.73;3.60;;;28.10;99.90;;;;;;4985909;28;20511;-75
2022/09/06 11:12:17;;;;;;;5.23;3.70;;;28.10;99.90;;;;;;4985551;28;20486;-76
2022/09/06 11:14:44;;;;;;;7.90;3.80;;;27.90;99.90;;;;;;4985521;28;20448;-76
2022/09/06 11:17:18;;;;;;;10.70;3.30;;;27.90;99.90;;;;;;4985442;28;20470;-76
2022/09/06 11:19:49;;;;;;;6.33;3.27;;;28.00;99.90;;;;;;4985844;28;20443;-76
2022/09/06 11:22:33;;;;;;;13.63;4.03;;;28.10;99.90;;;;;;4985260;28;20487;-75
2022/09/06 11:25:22;;;;;;;7.27;3.10;;;28.00;99.90;;;;;;4985501;28;20526;-75
2022/09/06 11:27:53;;;;;;;6.10;3.50;;;27.90;99.90;;;;;;4989249;28;20464;-74
2022/09/06 11:30:21;;;;;;;6.40;3.23;;;27.90;99.90;;;;;;4989804;28;20483;-74
2022/09/06 11:32:50;;;;;;;5.17;3.10;;;28.00;99.90;;;;;;4988861;28;20829;-75
2022/09/06 11:35:23;;;;;;;9.20;3.57;;;27.90;99.90;;;;;;4988654;28;20463;-75
2022/09/06 11:37:59;;;;;;;4.10;2.90;;;27.90;99.90;;;;;;4989338;28;20470;-75
2022/09/06 11:40:28;;;;;;;6.63;2.90;;;27.80;99.90;;;;;;4989198;28;20462;-75
2022/09/06 11:43:15;;;;;;;8.67;3.47;;;27.90;99.90;;;;;;4989587;28;20459;-74
2022/09/06 11:45:49;;;;;;;6.27;3.07;;;27.90;99.90;;;;;;4988555;28;20466;-75
2022/09/06 11:48:48;;;;;;;6.07;3.37;;;28.10;99.90;;;;;;4989152;28;20482;-74
2022/09/06 11:51:33;;;;;;;8.87;3.63;;;28.20;99.90;;;;;;4988821;28;21002;-74
2022/09/06 11:54:20;;;;;;;7.90;4.00;;;28.30;99.90;;;;;;4988546;28;20939;-74
2022/09/06 11:56:53;;;;;;;8.93;4.20;;;28.40;99.90;;;;;;4988851;28;20466;-76
2022/09/06 11:59:36;;;;;;;5.10;3.40;;;28.40;99.90;;;;;;4988812;28;20549;-75
2022/09/06 12:02:05;;;;;;;6.57;2.60;;;28.60;99.90;;;;;;4988312;28;21082;-72
2022/09/06 12:05:10;;;;;;;5.23;3.00;;;28.70;99.90;;;;;;4988252;28;20460;-75
2022/09/06 12:07:38;;;;;;;4.43;2.30;;;28.70;99.90;;;;;;4988941;28;20470;-76
2022/09/06 12:10:41;;;;;;;9.13;2.77;;;28.80;99.90;;;;;;4988289;28;20869;-74
2022/09/06 12:13:47;;;;;;;6.43;2.47;;;28.90;99.90;;;;;;4983410;28;20466;-75
2022/09/06 12:16:17;;;;;;;6.43;2.13;;;28.90;99.90;;;;;;4987931;28;20840;-74
2022/09/06 12:19:01;;;;;;;10.83;3.23;;;28.90;99.90;;;;;;4988430;28;20537;-74
2022/09/06 12:21:52;;;;;;;7.27;3.17;;;29.00;99.90;;;;;;4988532;28;20476;-74
2022/09/06 12:24:51;;;;;;;3.63;2.60;;;29.00;99.90;;;;;;4972839;28;21066;-74
2022/09/06 12:27:19;;;;;;;10.57;3.40;;;29.00;99.90;;;;;;4985710;28;20475;-74
2022/09/06 12:29:56;;;;;;;5.57;2.37;;;29.00;99.90;;;;;;4988177;28;20794;-75
2022/09/06 12:32:28;;;;;;;5.63;2.70;;;28.90;99.90;;;;;;4988074;28;20999;-74
2022/09/06 12:34:57;;;;;;;4.67;2.43;;;28.90;99.90;;;;;;4987631;28;20452;-74
2022/09/06 12:37:32;;;;;;;4.60;2.57;;;28.90;99.90;;;;;;4986995;28;21012;-74
2022/09/06 12:40:00;;;;;;;7.30;2.60;;;28.90;99.90;;;;;;4988298;28;20455;-74
2022/09/06 12:42:27;;;;;;;7.70;2.37;;;28.90;99.90;;;;;;4988245;28;20483;-74
2022/09/06 12:44:55;;;;;;;6.93;2.47;;;28.80;99.90;;;;;;4987413;28;20474;-74
2022/09/06 12:47:27;;;;;;;4.80;2.57;;;28.70;99.90;;;;;;4987734;28;20844;-74
2022/09/06 12:50:15;;;;;;;10.17;2.97;;;28.70;99.90;;;;;;4987325;28;20538;-74
2022/09/06 12:52:47;;;;;;;6.53;3.00;;;28.70;99.90;;;;;;4987962;28;20523;-75
2022/09/06 12:55:18;;;;;;;6.97;3.30;;;28.70;99.90;;;;;;4987544;28;20459;-74
2022/09/06 12:57:51;;;;;;;7.60;2.83;;;28.60;99.90;;;;;;4987771;28;20994;-74
2022/09/06 13:00:19;;;;;;;7.57;3.10;;;28.50;99.90;;;;;;4987479;28;20505;-75
2022/09/06 13:02:55;;;;;;;7.33;3.50;;;28.50;99.90;;;;;;4987767;28;20855;-74
2022/09/06 13:05:23;;;;;;;6.87;3.30;;;28.30;99.90;;;;;;4986902;28;21023;-74
2022/09/06 13:07:53;;;;;;;7.40;3.57;;;28.40;99.90;;;;;;4987517;28;20522;-74
2022/09/06 13:10:24;;;;;;;7.57;2.80;;;28.30;99.90;;;;;;4987460;28;20590;-75
2022/09/06 13:12:52;;;;;;;11.00;3.43;;;28.40;99.90;;;;;;4987098;28;20464;-74
2022/09/06 13:15:23;;;;;;;7.77;3.87;;;28.40;99.90;;;;;;4986953;28;20456;-73
2022/09/06 13:17:52;;;;;;;6.70;3.20;;;28.40;99.90;;;;;;4987218;28;20908;-74
2022/09/06 13:20:25;;;;;;;6.70;3.30;;;28.40;99.90;;;;;;4987388;28;20474;-74
2022/09/06 13:22:54;;;;;;;14.63;3.30;;;28.50;99.90;;;;;;4987743;28;20451;-75
2022/09/06 13:25:25;;;;;;;7.40;2.70;;;28.40;99.90;;;;;;4987525;28;20827;-75
2022/09/06 13:27:56;;;;;;;5.03;3.03;;;28.50;99.90;;;;;;4988305;28;20546;-74
2022/09/06 13:30:32;;;;;;;6.50;3.10;;;28.50;99.90;;;;;;4988505;28;20574;-74
2022/09/06 13:33:01;;;;;;;7.93;3.43;;;28.40;99.90;;;;;;4988705;28;20459;-74
2022/09/06 13:35:31;;;;;;;6.07;3.00;;;28.40;99.90;;;;;;4987274;28;20955;-74
2022/09/06 13:38:29;;;;;;;7.47;2.80;;;28.40;99.90;;;;;;4987932;28;20468;-75
2022/09/06 13:40:56;;;;;;;8.37;3.53;;;28.50;99.90;;;;;;4976481;28;20995;-75
2022/09/06 13:43:24;;;;;;;6.97;2.83;;;28.40;99.90;;;;;;4987482;28;20843;-74
2022/09/06 13:46:04;;;;;;;3.20;2.53;;;28.40;99.90;;;;;;4986462;28;20463;-74
2022/09/06 13:48:33;;;;;;;7.57;3.43;;;28.40;99.90;;;;;;4986875;28;20440;-74
2022/09/06 13:51:00;;;;;;;8.30;2.70;;;28.70;99.90;;;;;;4987562;28;20503;-74
2022/09/06 13:53:26;;;;;;;5.33;2.77;;;28.90;99.90;;;;;;4986620;28;20471;-74
2022/09/06 13:55:53;;;;;;;7.10;3.23;;;29.00;99.90;;;;;;4986554;28;20827;-74
2022/09/06 13:58:20;;;;;;;7.07;3.30;;;28.90;99.90;;;;;;4986814;28;20546;-74
2022/09/06 14:00:47;;;;;;;6.20;3.30;;;28.80;99.90;;;;;;4984949;28;20484;-74
2022/09/06 14:03:21;;;;;;;7.10;3.10;;;28.90;99.90;;;;;;4987263;28;20506;-75
2022/09/06 14:05:49;;;;;;;7.40;3.40;;;29.00;99.90;;;;;;4985965;28;20556;-75
2022/09/06 14:08:20;;;;;;;8.27;2.93;;;29.20;99.90;;;;;;4986926;28;20854;-74
2022/09/06 14:10:47;;;;;;;12.70;3.07;;;29.30;99.90;;;;;;4986787;28;21477;-74
2022/09/06 14:13:23;;;;;;;10.33;3.17;;;29.30;99.90;;;;;;4986757;28;20530;-75
2022/09/06 14:15:50;;;;;;;11.40;3.30;;;29.30;99.90;;;;;;4987147;28;20892;-74
2022/09/06 14:18:17;;;;;;;4.73;2.93;;;29.20;99.90;;;;;;4986672;28;20455;-75
2022/09/06 14:20:53;;;;;;;6.53;2.97;;;29.10;99.90;;;;;;4986548;28;21014;-74
2022/09/06 14:23:21;;;;;;;7.27;2.93;;;29.20;99.90;;;;;;4987551;28;20487;-74
2022/09/06 14:25:48;;;;;;;6.77;3.17;;;29.10;99.90;;;;;;4986287;28;20459;-75
2022/09/06 14:28:15;;;;;;;9.33;3.43;;;28.90;99.90;;;;;;4986516;28;20501;-74
2022/09/06 14:30:42;;;;;;;6.73;3.60;;;28.80;99.90;;;;;;4986319;28;20499;-76
2022/09/06 14:33:09;;;;;;;5.80;3.03;;;28.80;99.90;;;;;;4986657;28;20467;-74
2022/09/06 14:35:36;;;;;;;5.20;3.00;;;28.70;99.90;;;;;;4986041;28;20553;-74
2022/09/06 14:38:04;;;;;;;7.83;3.83;;;28.70;99.90;;;;;;4986543;28;20850;-74
2022/09/06 14:40:34;;;;;;;11.00;3.70;;;28.60;99.90;;;;;;4986152;28;20566;-76
2022/09/06 14:43:01;;;;;;;5.40;3.20;;;28.50;99.90;;;;;;4986172;28;20454;-75
2022/09/06 14:45:28;;;;;;;9.10;3.90;;;28.50;99.90;;;;;;4985860;28;21412;-75
2022/09/06 14:47:55;;;;;;;4.40;2.80;;;28.60;99.90;;;;;;4986781;28;20460;-75
2022/09/06 14:50:22;;;;;;;5.67;3.37;;;28.60;99.90;;;;;;4986566;28;21007;-72
2022/09/06 14:52:49;;;;;;;5.07;3.30;;;28.60;99.90;;;;;;4986601;28;20830;-75
2022/09/06 14:55:19;;;;;;;7.53;3.17;;;28.50;99.90;;;;;;4986004;28;20550;-72
2022/09/06 14:57:46;;;;;;;9.10;3.10;;;28.60;99.90;;;;;;4988383;28;20428;-73
2022/09/06 15:00:14;;;;;;;6.70;3.40;;;28.60;99.90;;;;;;4989061;28;20498;-74
2022/09/06 15:02:41;;;;;;;7.70;2.83;;;28.50;99.90;;;;;;4990850;28;20930;-75
2022/09/06 15:05:09;;;;;;;10.10;3.30;;;28.50;99.90;;;;;;4990185;28;20464;-74
2022/09/06 15:07:36;;;;;;;8.53;3.80;;;28.50;99.90;;;;;;4990861;28;21258;-75
2022/09/06 15:10:04;;;;;;;9.60;3.37;;;28.40;99.90;;;;;;4991916;28;20558;-73
2022/09/06 15:12:32;;;;;;;9.47;3.23;;;28.40;99.90;;;;;;4991803;28;20570;-74
2022/09/06 15:14:59;;;;;;;8.17;3.00;;;28.40;99.90;;;;;;4990511;28;21173;-74
2022/09/06 15:17:26;;;;;;;7.30;3.57;;;28.40;99.90;;;;;;4990784;28;21061;-75
2022/09/06 15:19:53;;;;;;;8.90;3.10;;;28.30;99.90;;;;;;4991445;28;20543;-73
2022/09/06 15:22:20;;;;;;;9.30;3.60;;;28.20;99.90;;;;;;4990322;28;20459;-73
2022/09/06 15:24:49;;;;;;;6.50;3.37;;;28.10;99.90;;;;;;4989446;28;20482;-75
2022/09/06 15:27:16;;;;;;;5.77;2.83;;;28.20;99.90;;;;;;4990408;28;20455;-73
2022/09/06 15:29:44;;;;;;;7.67;3.27;;;28.20;99.90;;;;;;4990317;28;20451;-75
2022/09/06 15:32:11;;;;;;;9.13;3.40;;;28.20;99.90;;;;;;4989894;28;20510;-73
2022/09/06 15:34:38;;;;;;;10.00;3.30;;;28.20;99.90;;;;;;4988831;28;20897;-74
2022/09/06 15:37:05;;;;;;;4.50;3.40;;;28.10;99.90;;;;;;4989878;28;20486;-73
2022/09/06 15:39:31;;;;;;;7.60;3.27;;;28.00;99.90;;;;;;4990019;28;20952;-73
2022/09/06 15:41:58;;;;;;;11.43;3.30;;;27.90;99.90;;;;;;4990439;28;20491;-75
2022/09/06 15:44:26;;;;;;;7.40;3.57;;;27.70;99.90;;;;;;4988861;28;20506;-74
2022/09/06 15:46:56;;;;;;;4.60;3.43;;;27.50;99.90;;;;;;4988046;28;20830;-74
2022/09/06 15:49:25;;;;;;;9.30;3.60;;;27.40;99.90;;;;;;4988926;28;20541;-75
2022/09/06 15:51:52;;;;;;;14.10;4.10;;;27.30;99.90;;;;;;4988869;28;20578;-74
2022/09/06 15:55:54;;;;;;;7.60;3.40;;;27.20;99.90;;;;;;4989149;28;20463;-74
2022/09/06 15:57:09;;;;;;;9.73;4.37;;;27.20;99.90;;;;;;4989382;28;20456;-74
2022/09/06 15:59:36;;;;;;;10.57;3.80;;;27.20;99.90;;;;;;4988570;28;20546;-74
2022/09/06 16:02:04;;;;;;;14.33;3.73;;;27.20;99.90;;;;;;4988902;28;20495;-74
2022/09/06 16:04:31;;;;;;;11.80;4.07;;;27.10;99.90;;;;;;4988532;28;21254;-74
2022/09/06 16:06:58;;;;;;;12.70;4.37;;;27.00;99.90;;;;;;4989216;28;20462;-74
2022/09/06 16:09:25;;;;;;;9.40;5.10;;;27.00;99.90;;;;;;4989651;28;20470;-74
2022/09/06 16:11:52;;;;;;;8.07;3.80;;;26.90;99.90;;;;;;4988751;28;20503;-75
2022/09/06 16:14:19;;;;;;;7.23;3.97;;;26.90;99.90;;;;;;4988634;28;20486;-74
2022/09/06 16:16:46;;;;;;;11.80;5.73;;;26.90;99.90;;;;;;4989163;28;20940;-73
2022/09/06 16:19:14;;;;;;;12.43;5.30;;;26.80;99.90;;;;;;4989019;28;20464;-73
2022/09/06 16:21:42;;;;;;;13.50;4.40;;;26.80;99.90;;;;;;4989676;28;20956;-73
2022/09/06 16:24:11;;;;;;;9.23;4.13;;;26.80;99.90;;;;;;4988274;28;20487;-77
2022/09/06 16:26:40;;;;;;;9.10;4.57;;;26.90;99.90;;;;;;4988967;28;20466;-75
2022/09/06 16:29:08;;;;;;;12.13;4.30;;;26.80;99.90;;;;;;4989399;28;20551;-74
2022/09/06 16:31:36;;;;;;;10.23;4.20;;;26.90;99.90;;;;;;4989258;28;20897;-73
2022/09/06 16:34:03;;;;;;;9.43;4.70;;;26.90;99.90;;;;;;4988333;28;20565;-74
2022/09/06 16:36:31;;;;;;;10.07;4.10;;;26.80;99.90;;;;;;4988732;28;20459;-74
2022/09/06 16:38:58;;;;;;;14.30;4.13;;;26.80;99.90;;;;;;4988587;28;20460;-74
2022/09/06 16:41:27;;;;;;;9.57;3.87;;;26.80;99.90;;;;;;4988976;28;20503;-73
2022/09/06 16:43:55;;;;;;;11.50;4.43;;;26.70;99.90;;;;;;4988719;28;20530;-75
2022/09/06 16:46:23;;;;;;;5.93;4.63;;;26.70;99.90;;;;;;4988414;28;20956;-74
2022/09/06 16:48:51;;;;;;;10.77;4.27;;;26.70;99.90;;;;;;4988467;28;20467;-74
2022/09/06 16:51:20;;;;;;;8.60;5.47;;;26.70;99.90;;;;;;4988307;28;20499;-75
2022/09/06 16:53:49;;;;;;;7.30;4.50;;;26.70;99.90;;;;;;4987977;28;20987;-74
2022/09/06 16:56:18;;;;;;;6.23;4.47;;;26.60;99.90;;;;;;4987306;28;20470;-74
2022/09/06 16:58:51;;;;;;;6.63;3.90;;;26.60;99.90;;;;;;4988005;28;20463;-75
2022/09/06 17:01:18;;;;;;;7.17;3.83;;;26.60;99.90;;;;;;4987837;28;20495;-74